createdAt,value
2018-06-12T00:00:01.392Z,51.22
2018-06-12T00:00:32.594Z,51.28
2018-06-12T00:01:03.817Z,51.58
2018-06-12T00:01:34.999Z,51.68
2018-06-12T00:02:06.172Z,51.56
2018-06-12T00:02:37.345Z,51.70
2018-06-12T00:03:08.513Z,52.21
2018-06-12T00:03:39.696Z,52.92
2018-06-12T00:04:10.870Z,53.71
2018-06-12T00:04:42.141Z,53.65
2018-06-12T00:05:13.339Z,53.06
2018-06-12T00:05:44.511Z,53.58
2018-06-12T00:06:15.685Z,52.70
2018-06-12T00:06:46.867Z,53.25
2018-06-12T00:07:18.040Z,52.92
2018-06-12T00:07:49.246Z,53.20
2018-06-12T00:08:20.421Z,54.15
2018-06-12T00:08:51.660Z,53.74
2018-06-12T00:09:22.909Z,54.56
2018-06-12T00:09:54.189Z,54.60
2018-06-12T00:10:25.399Z,54.99
2018-06-12T00:10:56.575Z,55.48
2018-06-12T00:11:27.741Z,55.78
2018-06-12T00:11:58.904Z,57.45
2018-06-12T00:12:30.141Z,57.21
2018-06-12T00:13:01.409Z,56.16
2018-06-12T00:13:32.576Z,56.08
2018-06-12T00:14:03.754Z,56.42
2018-06-12T00:14:35.261Z,56.16
2018-06-12T00:15:06.545Z,55.51
2018-06-12T00:15:37.744Z,55.66
2018-06-12T00:16:08.924Z,55.26
2018-06-12T00:16:40.100Z,55.46
2018-06-12T00:17:11.275Z,55.26
2018-06-12T00:17:42.501Z,56.07
2018-06-12T00:18:13.745Z,57.38
2018-06-12T00:18:44.912Z,56.88
2018-06-12T00:19:16.085Z,56.55
2018-06-12T00:19:47.267Z,57.03
2018-06-12T00:20:18.535Z,57.23
2018-06-12T00:20:49.796Z,56.41
2018-06-12T00:21:20.984Z,57.18
2018-06-12T00:21:52.157Z,57.15
2018-06-12T00:22:23.387Z,57.11
2018-06-12T00:22:54.567Z,56.47
2018-06-12T00:23:25.799Z,57.47
2018-06-12T00:23:57.023Z,57.33
2018-06-12T00:24:28.200Z,58.00
2018-06-12T00:24:59.424Z,58.32
2018-06-12T00:25:30.657Z,58.68
2018-06-12T00:26:01.846Z,58.36
2018-06-12T00:26:33.027Z,58.46
2018-06-12T00:27:04.298Z,58.75
2018-06-12T00:27:35.472Z,59.47
2018-06-12T00:28:06.701Z,59.67
2018-06-12T00:28:37.897Z,59.69
2018-06-12T00:29:09.076Z,59.84
2018-06-12T00:29:40.297Z,58.97
2018-06-12T00:30:11.515Z,59.81
2018-06-12T00:30:42.765Z,60.33
2018-06-12T00:31:13.945Z,60.97
2018-06-12T00:31:45.140Z,61.24
2018-06-12T00:32:16.308Z,61.23
2018-06-12T00:32:47.543Z,61.17
2018-06-12T00:33:18.729Z,61.18
2018-06-12T00:33:49.947Z,62.04
2018-06-12T00:34:21.185Z,61.60
2018-06-12T00:34:52.413Z,61.98
2018-06-12T00:35:23.613Z,61.84
2018-06-12T00:35:54.821Z,61.28
2018-06-12T00:36:25.988Z,61.55
2018-06-12T00:36:57.161Z,62.05
2018-06-12T00:37:28.347Z,61.53
2018-06-12T00:37:59.516Z,61.81
2018-06-12T00:38:30.769Z,62.26
2018-06-12T00:39:02.002Z,61.96
2018-06-12T00:39:33.200Z,62.12
2018-06-12T00:40:04.461Z,62.00
2018-06-12T00:40:35.639Z,62.67
2018-06-12T00:41:06.896Z,62.77
2018-06-12T00:41:38.129Z,62.57
2018-06-12T00:42:09.362Z,62.48
2018-06-12T00:42:40.577Z,62.80
2018-06-12T00:43:11.756Z,62.62
2018-06-12T00:43:42.999Z,63.29
2018-06-12T00:44:14.184Z,62.79
2018-06-12T00:44:45.412Z,62.92
2018-06-12T00:45:16.653Z,62.62
2018-06-12T00:45:47.868Z,63.50
2018-06-12T00:46:19.088Z,62.98
2018-06-12T00:46:50.285Z,63.03
2018-06-12T00:47:21.460Z,63.28
2018-06-12T00:47:52.634Z,63.66
2018-06-12T00:48:23.881Z,63.29
2018-06-12T00:48:55.132Z,63.46
2018-06-12T00:49:26.390Z,63.50
2018-06-12T00:49:57.628Z,63.57
2018-06-12T00:50:28.800Z,63.65
2018-06-12T00:51:00.002Z,63.75
2018-06-12T00:51:31.270Z,63.17
2018-06-12T00:52:02.543Z,63.35
2018-06-12T00:52:33.786Z,63.27
2018-06-12T00:53:04.965Z,63.84
2018-06-12T00:53:36.148Z,63.43
2018-06-12T00:54:07.330Z,63.49
2018-06-12T00:54:38.509Z,63.75
2018-06-12T00:55:13.319Z,63.63
2018-06-12T00:55:44.503Z,64.00
2018-06-12T00:56:15.708Z,64.22
2018-06-12T00:56:49.283Z,64.37
2018-06-12T00:57:20.580Z,64.40
2018-06-12T00:58:01.061Z,64.34
2018-06-12T00:58:32.968Z,64.14
2018-06-12T00:59:04.716Z,64.61
2018-06-12T00:59:35.987Z,65.05
2018-06-12T01:00:07.236Z,65.09
2018-06-12T01:00:38.428Z,64.80
2018-06-12T01:01:09.731Z,65.14
2018-06-12T01:01:40.917Z,64.87
2018-06-12T01:02:12.096Z,65.39
2018-06-12T01:02:43.266Z,65.27
2018-06-12T01:03:14.501Z,65.70
2018-06-12T01:03:45.687Z,65.69
2018-06-12T01:04:16.861Z,65.92
2018-06-12T01:04:48.043Z,65.75
2018-06-12T01:05:19.250Z,65.12
2018-06-12T01:05:51.264Z,65.79
2018-06-12T01:06:22.493Z,65.80
2018-06-12T01:06:53.700Z,65.54
2018-06-12T01:07:24.912Z,66.00
2018-06-12T01:07:56.150Z,65.23
2018-06-12T01:08:27.400Z,65.24
2018-06-12T01:08:58.569Z,65.38
2018-06-12T01:09:29.880Z,65.10
2018-06-12T01:10:01.115Z,65.52
2018-06-12T01:10:32.301Z,65.11
2018-06-12T01:11:03.476Z,65.18
2018-06-12T01:11:34.661Z,65.33
2018-06-12T01:12:05.862Z,65.19
2018-06-12T01:12:37.069Z,65.81
2018-06-12T01:13:08.250Z,65.30
2018-06-12T01:13:39.482Z,65.40
2018-06-12T01:14:10.720Z,65.28
2018-06-12T01:14:41.945Z,65.32
2018-06-12T01:15:13.131Z,65.52
2018-06-12T01:15:44.406Z,65.98
2018-06-12T01:16:15.588Z,65.89
2018-06-12T01:16:46.774Z,65.90
2018-06-12T01:17:17.986Z,66.06
2018-06-12T01:17:49.169Z,65.23
2018-06-12T01:18:20.450Z,65.19
2018-06-12T01:18:51.638Z,64.74
2018-06-12T01:19:22.844Z,65.47
2018-06-12T01:19:54.029Z,65.66
2018-06-12T01:20:25.279Z,66.12
2018-06-12T01:20:56.466Z,66.11
2018-06-12T01:21:27.650Z,65.83
2018-06-12T01:21:58.824Z,65.58
2018-06-12T01:22:29.996Z,65.86
2018-06-12T01:23:01.233Z,65.64
2018-06-12T01:23:32.465Z,65.31
2018-06-12T01:24:03.690Z,65.40
2018-06-12T01:24:34.879Z,65.62
2018-06-12T01:25:06.107Z,65.73
2018-06-12T01:25:37.338Z,65.40
2018-06-12T01:26:08.577Z,66.02
2018-06-12T01:26:39.761Z,65.36
2018-06-12T01:27:10.984Z,65.50
2018-06-12T01:27:42.168Z,65.69
2018-06-12T01:28:13.397Z,66.01
2018-06-12T01:28:44.710Z,65.73
2018-06-12T01:29:15.947Z,65.69
2018-06-12T01:29:47.191Z,65.29
2018-06-12T01:30:18.449Z,65.54
2018-06-12T01:30:49.633Z,65.47
2018-06-12T01:31:20.823Z,65.38
2018-06-12T01:31:52.053Z,65.53
2018-06-12T01:32:23.250Z,66.05
2018-06-12T01:32:54.430Z,65.94
2018-06-12T01:33:25.624Z,65.77
2018-06-12T01:33:56.848Z,65.59
2018-06-12T01:34:28.021Z,66.53
2018-06-12T01:34:59.269Z,66.23
2018-06-12T01:35:30.467Z,66.47
2018-06-12T01:36:01.717Z,65.98
2018-06-12T01:36:32.905Z,66.27
2018-06-12T01:37:04.089Z,66.41
2018-06-12T01:37:35.264Z,67.00
2018-06-12T01:38:06.442Z,66.30
2018-06-12T01:38:37.685Z,67.15
2018-06-12T01:39:08.858Z,67.31
2018-06-12T01:39:40.033Z,67.71
2018-06-12T01:40:11.285Z,67.97
2018-06-12T01:40:42.472Z,68.15
2018-06-12T01:41:13.685Z,68.20
2018-06-12T01:41:44.856Z,67.91
2018-06-12T01:42:16.033Z,67.63
2018-06-12T01:42:47.273Z,67.47
2018-06-12T01:43:18.519Z,67.10
2018-06-12T01:43:49.705Z,67.17
2018-06-12T01:44:20.872Z,68.02
2018-06-12T01:44:52.101Z,67.57
2018-06-12T01:45:23.285Z,67.85
2018-06-12T01:45:54.476Z,67.76
2018-06-12T01:46:25.743Z,67.69
2018-06-12T01:46:56.986Z,67.98
2018-06-12T01:47:28.177Z,68.25
2018-06-12T01:47:59.461Z,68.28
2018-06-12T01:48:30.691Z,68.38
2018-06-12T01:49:01.870Z,68.65
2018-06-12T01:49:33.098Z,68.33
2018-06-12T01:50:04.308Z,68.25
2018-06-12T01:50:35.481Z,68.52
2018-06-12T01:51:06.659Z,68.31
2018-06-12T01:51:37.881Z,68.63
2018-06-12T01:52:09.072Z,68.53
2018-06-12T01:52:40.276Z,68.68
2018-06-12T01:53:11.537Z,68.71
2018-06-12T01:53:42.738Z,68.43
2018-06-12T01:54:13.972Z,68.83
2018-06-12T01:54:45.156Z,68.02
2018-06-12T01:55:16.441Z,67.93
2018-06-12T01:55:47.673Z,67.86
2018-06-12T01:56:18.870Z,67.61
2018-06-12T01:56:50.044Z,68.27
2018-06-12T01:57:21.214Z,67.89
2018-06-12T01:57:52.444Z,67.97
2018-06-12T01:58:23.671Z,67.90
2018-06-12T01:58:54.913Z,67.74
2018-06-12T01:59:26.144Z,67.66
2018-06-12T01:59:57.312Z,68.49
2018-06-12T02:00:28.532Z,68.36
2018-06-12T02:00:59.704Z,68.37
2018-06-12T02:01:30.880Z,68.14
2018-06-12T02:02:02.108Z,68.34
2018-06-12T02:02:33.295Z,67.86
2018-06-12T02:03:04.484Z,67.80
2018-06-12T02:03:35.716Z,67.69
2018-06-12T02:04:06.953Z,68.16
2018-06-12T02:04:38.136Z,68.20
2018-06-12T02:05:09.373Z,67.61
2018-06-12T02:05:40.600Z,67.62
2018-06-12T02:06:11.877Z,68.10
2018-06-12T02:06:43.118Z,68.30
2018-06-12T02:07:14.293Z,68.15
2018-06-12T02:07:45.563Z,68.07
2018-06-12T02:08:16.763Z,67.55
2018-06-12T02:08:47.980Z,67.78
2018-06-12T02:09:19.229Z,67.57
2018-06-12T02:09:50.415Z,67.59
2018-06-12T02:10:21.668Z,66.81
2018-06-12T02:10:52.919Z,67.29
2018-06-12T02:11:24.095Z,67.02
2018-06-12T02:11:55.284Z,67.44
2018-06-12T02:12:26.465Z,67.60
2018-06-12T02:12:57.654Z,67.51
2018-06-12T02:13:29.645Z,67.77
2018-06-12T02:14:00.860Z,67.35
2018-06-12T02:14:32.037Z,66.79
2018-06-12T02:15:03.269Z,67.72
2018-06-12T02:15:34.534Z,67.72
2018-06-12T02:16:06.934Z,66.66
2018-06-12T02:16:38.156Z,66.74
2018-06-12T02:17:09.349Z,67.08
2018-06-12T02:17:40.590Z,66.89
2018-06-12T02:18:11.775Z,66.75
2018-06-12T02:18:42.948Z,66.26
2018-06-12T02:19:14.172Z,66.59
2018-06-12T02:19:46.008Z,66.36
2018-06-12T02:20:17.244Z,66.58
2018-06-12T02:20:48.419Z,67.00
2018-06-12T02:21:20.216Z,67.16
2018-06-12T02:21:51.447Z,66.97
2018-06-12T02:22:22.681Z,67.25
2018-06-12T02:22:53.867Z,66.80
2018-06-12T02:23:25.110Z,66.87
2018-06-12T02:23:56.342Z,67.16
2018-06-12T02:24:27.564Z,67.29
2018-06-12T02:24:58.748Z,67.08
2018-06-12T02:25:29.932Z,66.40
2018-06-12T02:26:01.216Z,66.81
2018-06-12T02:26:32.405Z,66.35
2018-06-12T02:27:03.592Z,66.01
2018-06-12T02:27:34.760Z,65.93
2018-06-12T02:28:05.942Z,66.66
2018-06-12T02:28:37.143Z,66.52
2018-06-12T02:29:08.366Z,66.04
2018-06-12T02:29:39.543Z,66.35
2018-06-12T02:30:10.780Z,66.50
2018-06-12T02:30:41.985Z,66.13
2018-06-12T02:31:13.212Z,66.52
2018-06-12T02:31:44.504Z,66.58
2018-06-12T02:32:15.734Z,66.85
2018-06-12T02:32:46.953Z,66.40
2018-06-12T02:33:18.133Z,66.57
2018-06-12T02:33:49.317Z,66.40
2018-06-12T02:34:20.590Z,66.43
2018-06-12T02:34:51.826Z,66.88
2018-06-12T02:35:23.024Z,66.29
2018-06-12T02:35:54.265Z,67.05
2018-06-12T02:36:25.470Z,66.46
2018-06-12T02:36:56.733Z,66.34
2018-06-12T02:37:27.960Z,66.96
2018-06-12T02:37:59.214Z,66.60
2018-06-12T02:38:30.400Z,67.31
2018-06-12T02:39:02.529Z,66.80
2018-06-12T02:39:34.382Z,67.13
2018-06-12T02:40:05.625Z,67.76
2018-06-12T02:40:36.846Z,67.37
2018-06-12T02:41:08.038Z,67.33
2018-06-12T02:41:39.256Z,66.94
2018-06-12T02:42:10.460Z,66.93
2018-06-12T02:42:41.706Z,67.06
2018-06-12T02:43:12.900Z,66.72
2018-06-12T02:43:44.085Z,66.81
2018-06-12T02:44:15.259Z,66.52
2018-06-12T02:44:46.441Z,66.88
2018-06-12T02:45:17.741Z,67.03
2018-06-12T02:45:49.016Z,66.69
2018-06-12T02:46:20.254Z,67.24
2018-06-12T02:46:51.554Z,66.71
2018-06-12T02:47:22.774Z,67.15
2018-06-12T02:47:53.992Z,66.96
2018-06-12T02:48:25.164Z,67.26
2018-06-12T02:48:56.379Z,67.29
2018-06-12T02:49:27.615Z,66.83
2018-06-12T02:49:58.876Z,66.61
2018-06-12T02:50:30.174Z,66.64
2018-06-12T02:51:01.354Z,66.61
2018-06-12T02:51:32.579Z,66.44
2018-06-12T02:52:03.807Z,66.82
2018-06-12T02:52:34.999Z,66.47
2018-06-12T02:53:06.240Z,66.26
2018-06-12T02:53:37.428Z,66.18
2018-06-12T02:54:09.663Z,66.37
2018-06-12T02:54:40.865Z,66.40
2018-06-12T02:55:12.597Z,66.17
2018-06-12T02:55:43.782Z,66.04
2018-06-12T02:56:15.007Z,65.97
2018-06-12T02:56:46.272Z,66.12
2018-06-12T02:57:17.445Z,65.81
2018-06-12T02:57:48.624Z,66.39
2018-06-12T02:58:20.748Z,66.26
2018-06-12T02:58:52.081Z,66.17
2018-06-12T02:59:23.265Z,66.78
2018-06-12T02:59:54.470Z,66.79
2018-06-12T03:00:25.644Z,66.71
2018-06-12T03:00:57.577Z,66.69
2018-06-12T03:01:28.761Z,66.39
2018-06-12T03:02:00.054Z,66.76
2018-06-12T03:02:32.040Z,66.12
2018-06-12T03:03:03.214Z,66.60
2018-06-12T03:03:34.430Z,65.87
2018-06-12T03:04:05.622Z,66.41
2018-06-12T03:04:36.807Z,65.71
2018-06-12T03:05:07.980Z,66.03
2018-06-12T03:05:39.187Z,66.30
2018-06-12T03:06:10.422Z,66.02
2018-06-12T03:06:41.641Z,65.80
2018-06-12T03:07:12.946Z,66.33
2018-06-12T03:07:44.154Z,65.57
2018-06-12T03:08:15.327Z,65.96
2018-06-12T03:08:46.505Z,65.91
2018-06-12T03:09:17.720Z,65.42
2018-06-12T03:09:48.897Z,65.02
2018-06-12T03:10:20.066Z,65.06
2018-06-12T03:10:51.253Z,64.89
2018-06-12T03:11:22.474Z,64.81
2018-06-12T03:11:53.677Z,64.31
2018-06-12T03:12:24.884Z,64.60
2018-06-12T03:12:56.060Z,64.42
2018-06-12T03:13:27.297Z,63.97
2018-06-12T03:13:58.500Z,63.77
2018-06-12T03:14:29.685Z,63.57
2018-06-12T03:15:01.441Z,63.18
2018-06-12T03:15:32.681Z,63.97
2018-06-12T03:16:03.862Z,63.73
2018-06-12T03:16:35.035Z,63.70
2018-06-12T03:17:06.222Z,63.37
2018-06-12T03:17:37.397Z,64.01
2018-06-12T03:18:08.596Z,63.86
2018-06-12T03:18:39.825Z,64.05
2018-06-12T03:19:11.017Z,63.77
2018-06-12T03:19:42.220Z,64.18
2018-06-12T03:20:13.457Z,64.25
2018-06-12T03:20:44.648Z,63.79
2018-06-12T03:21:15.824Z,63.92
2018-06-12T03:21:46.996Z,63.65
2018-06-12T03:22:18.224Z,63.43
2018-06-12T03:22:49.485Z,63.57
2018-06-12T03:23:20.711Z,63.07
2018-06-12T03:23:51.937Z,62.80
2018-06-12T03:24:23.243Z,63.79
2018-06-12T03:24:54.473Z,63.17
2018-06-12T03:25:25.729Z,62.85
2018-06-12T03:25:56.984Z,63.17
2018-06-12T03:26:28.170Z,62.90
2018-06-12T03:26:59.351Z,62.24
2018-06-12T03:27:30.547Z,62.08
2018-06-12T03:28:01.717Z,61.82
2018-06-12T03:28:32.908Z,61.34
2018-06-12T03:29:04.081Z,60.78
2018-06-12T03:29:35.301Z,59.65
2018-06-12T03:30:06.496Z,59.33
2018-06-12T03:30:37.698Z,59.01
2018-06-12T03:31:08.879Z,58.99
2018-06-12T03:31:40.117Z,58.36
2018-06-12T03:32:11.301Z,58.54
2018-06-12T03:32:42.504Z,58.50
2018-06-12T03:33:13.725Z,57.52
2018-06-12T03:33:44.957Z,57.26
2018-06-12T03:34:16.193Z,57.07
2018-06-12T03:34:47.408Z,56.89
2018-06-12T03:35:18.608Z,56.83
2018-06-12T03:35:49.845Z,56.18
2018-06-12T03:36:21.029Z,56.17
2018-06-12T03:36:52.208Z,55.85
2018-06-12T03:37:23.384Z,54.98
2018-06-12T03:37:54.604Z,54.75
2018-06-12T03:38:25.779Z,55.29
2018-06-12T03:38:56.945Z,55.29
2018-06-12T03:39:28.155Z,55.01
2018-06-12T03:39:59.381Z,54.45
2018-06-12T03:40:30.720Z,55.18
2018-06-12T03:41:01.900Z,55.33
2018-06-12T03:41:33.086Z,55.62
2018-06-12T03:42:04.260Z,55.56
2018-06-12T03:42:35.485Z,54.75
2018-06-12T03:43:06.740Z,53.20
2018-06-12T03:43:37.948Z,53.96
2018-06-12T03:44:09.118Z,54.46
2018-06-12T03:44:40.303Z,54.23
2018-06-12T03:45:11.520Z,54.34
2018-06-12T03:45:42.753Z,53.96
2018-06-12T03:46:13.973Z,53.41
2018-06-12T03:46:45.148Z,53.95
2018-06-12T03:47:16.321Z,53.84
2018-06-12T03:47:47.561Z,53.16
2018-06-12T03:48:18.740Z,53.31
2018-06-12T03:48:50.721Z,54.00
2018-06-12T03:49:21.889Z,53.39
2018-06-12T03:49:53.052Z,53.69
2018-06-12T03:50:24.240Z,53.83
2018-06-12T03:50:55.408Z,53.46
2018-06-12T03:51:26.593Z,54.11
2018-06-12T03:51:57.826Z,54.07
2018-06-12T03:52:29.003Z,53.75
2018-06-12T03:53:00.237Z,53.42
2018-06-12T03:53:31.418Z,54.94
2018-06-12T03:54:02.679Z,54.44
2018-06-12T03:54:33.914Z,54.87
2018-06-12T03:55:05.093Z,55.40
2018-06-12T03:55:36.260Z,54.76
2018-06-12T03:56:07.485Z,55.44
2018-06-12T03:56:38.652Z,56.45
2018-06-12T03:57:09.868Z,56.79
2018-06-12T03:57:41.044Z,56.53
2018-06-12T03:58:12.340Z,56.87
2018-06-12T03:58:43.520Z,56.33
2018-06-12T03:59:14.687Z,55.79
2018-06-12T03:59:45.919Z,55.39
2018-06-12T04:00:17.104Z,55.25
2018-06-12T04:00:48.277Z,55.18
2018-06-12T04:01:19.497Z,54.63
2018-06-12T04:01:50.729Z,54.39
2018-06-12T04:02:21.908Z,54.32
2018-06-12T04:02:53.079Z,53.85
2018-06-12T04:03:24.272Z,53.19
2018-06-12T04:03:55.510Z,53.65
2018-06-12T04:04:26.704Z,53.61
2018-06-12T04:04:57.881Z,54.14
2018-06-12T04:05:29.115Z,54.11
2018-06-12T04:06:00.375Z,53.63
2018-06-12T04:06:31.632Z,54.48
2018-06-12T04:07:02.802Z,53.72
2018-06-12T04:07:33.994Z,54.27
2018-06-12T04:08:05.161Z,54.04
2018-06-12T04:08:36.338Z,53.38
2018-06-12T04:09:07.500Z,53.21
2018-06-12T04:09:38.683Z,52.91
2018-06-12T04:10:09.849Z,52.19
2018-06-12T04:10:41.036Z,51.63
2018-06-12T04:11:12.225Z,51.92
2018-06-12T04:11:43.477Z,51.71
2018-06-12T04:12:14.750Z,52.36
2018-06-12T04:12:46.002Z,52.34
2018-06-12T04:13:17.201Z,52.32
2018-06-12T04:13:48.368Z,51.75
2018-06-12T04:14:19.580Z,52.17
2018-06-12T04:14:50.800Z,52.49
2018-06-12T04:15:21.956Z,52.83
2018-06-12T04:15:53.200Z,52.80
2018-06-12T04:16:24.367Z,53.12
2018-06-12T04:16:55.576Z,53.29
2018-06-12T04:17:26.907Z,53.99
2018-06-12T04:17:58.146Z,53.08
2018-06-12T04:18:29.396Z,53.24
2018-06-12T04:19:00.562Z,52.35
2018-06-12T04:19:31.741Z,51.68
2018-06-12T04:20:02.918Z,52.02
2018-06-12T04:20:34.171Z,52.44
2018-06-12T04:21:05.389Z,52.55
2018-06-12T04:21:36.619Z,51.92
2018-06-12T04:22:07.890Z,52.13
2018-06-12T04:22:39.072Z,52.93
2018-06-12T04:23:10.236Z,51.53
2018-06-12T04:23:41.408Z,52.04
2018-06-12T04:24:12.629Z,53.16
2018-06-12T04:24:43.809Z,53.28
2018-06-12T04:25:14.978Z,52.08
2018-06-12T04:25:46.201Z,52.81
2018-06-12T04:26:17.382Z,52.48
2018-06-12T04:26:48.561Z,53.27
2018-06-12T04:27:19.788Z,53.27
2018-06-12T04:27:50.963Z,52.28
2018-06-12T04:28:22.185Z,52.43
2018-06-12T04:28:53.417Z,52.97
2018-06-12T04:29:24.641Z,53.17
2018-06-12T04:29:55.816Z,54.13
2018-06-12T04:30:26.997Z,53.23
2018-06-12T04:30:58.174Z,53.18
2018-06-12T04:31:29.358Z,53.39
2018-06-12T04:32:00.524Z,53.41
2018-06-12T04:32:31.705Z,54.15
2018-06-12T04:33:02.912Z,54.13
2018-06-12T04:33:34.128Z,53.60
2018-06-12T04:34:05.352Z,53.49
2018-06-12T04:34:36.554Z,53.42
2018-06-12T04:35:07.769Z,53.21
2018-06-12T04:35:39.655Z,53.02
2018-06-12T04:36:10.889Z,52.89
2018-06-12T04:36:42.058Z,53.64
2018-06-12T04:37:13.264Z,53.54
2018-06-12T04:37:44.510Z,52.93
2018-06-12T04:38:15.733Z,52.66
2018-06-12T04:38:46.937Z,52.53
2018-06-12T04:39:18.096Z,52.45
2018-06-12T04:39:49.325Z,52.75
2018-06-12T04:40:20.507Z,52.24
2018-06-12T04:40:51.737Z,52.67
2018-06-12T04:41:23.006Z,52.15
2018-06-12T04:41:54.194Z,51.84
2018-06-12T04:42:25.413Z,50.81
2018-06-12T04:42:56.584Z,49.35
2018-06-12T04:43:27.826Z,48.74
2018-06-12T04:43:59.073Z,48.68
2018-06-12T04:44:30.305Z,47.80
2018-06-12T04:45:01.555Z,48.07
2018-06-12T04:45:32.769Z,47.20
2018-06-12T04:46:03.947Z,48.03
2018-06-12T04:46:35.113Z,47.69
2018-06-12T04:47:06.337Z,47.27
2018-06-12T04:47:37.581Z,48.34
2018-06-12T04:48:08.762Z,48.57
2018-06-12T04:48:39.956Z,48.86
2018-06-12T04:49:11.232Z,48.72
2018-06-12T04:49:42.460Z,48.84
2018-06-12T04:50:13.689Z,50.10
2018-06-12T04:50:44.859Z,50.47
2018-06-12T04:51:16.077Z,49.80
2018-06-12T04:51:47.253Z,50.22
2018-06-12T04:52:18.485Z,50.25
2018-06-12T04:52:49.687Z,50.43
2018-06-12T04:53:20.889Z,50.82
2018-06-12T04:53:52.075Z,51.18
2018-06-12T04:54:23.296Z,51.36
2018-06-12T04:54:54.485Z,51.80
2018-06-12T04:55:25.728Z,51.42
2018-06-12T04:55:56.909Z,51.06
2018-06-12T04:56:28.205Z,51.33
2018-06-12T04:56:59.433Z,50.38
2018-06-12T04:57:30.653Z,50.78
2018-06-12T04:58:01.886Z,50.71
2018-06-12T04:58:33.066Z,51.13
2018-06-12T04:59:04.284Z,51.94
2018-06-12T04:59:35.502Z,51.16
2018-06-12T05:00:06.722Z,51.61
2018-06-12T05:00:37.905Z,51.08
2018-06-12T05:01:09.132Z,50.93
2018-06-12T05:01:40.317Z,50.40
2018-06-12T05:02:11.488Z,50.37
2018-06-12T05:02:42.705Z,49.81
2018-06-12T05:03:13.920Z,50.32
2018-06-12T05:03:45.149Z,49.08
2018-06-12T05:04:16.337Z,48.54
2018-06-12T05:04:47.569Z,48.09
2018-06-12T05:05:18.751Z,48.72
2018-06-12T05:05:49.925Z,47.76
2018-06-12T05:06:21.146Z,46.58
2018-06-12T05:06:52.387Z,45.46
2018-06-12T05:07:23.622Z,44.38
2018-06-12T05:07:54.817Z,43.35
2018-06-12T05:08:26.029Z,43.32
2018-06-12T05:08:57.208Z,43.46
2018-06-12T05:09:29.294Z,44.71
2018-06-12T05:10:00.520Z,44.24
2018-06-12T05:10:31.800Z,44.21
2018-06-12T05:11:03.018Z,43.87
2018-06-12T05:11:34.204Z,42.90
2018-06-12T05:12:05.379Z,43.54
2018-06-12T05:12:36.556Z,42.66
2018-06-12T05:13:07.736Z,41.81
2018-06-12T05:13:38.912Z,41.01
2018-06-12T05:14:10.143Z,41.33
2018-06-12T05:14:41.324Z,40.11
2018-06-12T05:15:12.507Z,39.68
2018-06-12T05:15:43.743Z,39.82
2018-06-12T05:16:14.937Z,39.83
2018-06-12T05:16:46.830Z,40.28
2018-06-12T05:17:18.069Z,40.25
2018-06-12T05:17:49.257Z,41.88
2018-06-12T05:18:20.492Z,41.69
2018-06-12T05:18:51.739Z,41.76
2018-06-12T05:19:22.961Z,42.64
2018-06-12T05:19:54.178Z,43.13
2018-06-12T05:20:25.396Z,43.89
2018-06-12T05:20:56.631Z,44.22
2018-06-12T05:21:28.003Z,44.75
2018-06-12T05:21:59.277Z,45.03
2018-06-12T05:22:30.484Z,44.80
2018-06-12T05:23:01.664Z,45.76
2018-06-12T05:23:32.853Z,45.79
2018-06-12T05:24:04.032Z,46.25
2018-06-12T05:24:35.218Z,46.72
2018-06-12T05:25:06.453Z,47.33
2018-06-12T05:25:37.674Z,48.20
2018-06-12T05:26:08.901Z,46.97
2018-06-12T05:26:40.240Z,48.68
2018-06-12T05:27:11.502Z,48.99
2018-06-12T05:27:42.736Z,48.58
2018-06-12T05:28:13.930Z,48.75
2018-06-12T05:28:45.107Z,49.56
2018-06-12T05:29:16.299Z,49.87
2018-06-12T05:29:47.494Z,50.60
2018-06-12T05:30:18.672Z,50.81
2018-06-12T05:30:49.853Z,50.75
2018-06-12T05:31:21.021Z,50.63
2018-06-12T05:31:52.230Z,50.44
2018-06-12T05:32:23.525Z,50.01
2018-06-12T05:32:54.710Z,50.71
2018-06-12T05:33:25.931Z,50.91
2018-06-12T05:33:57.176Z,50.02
2018-06-12T05:34:28.372Z,50.99
2018-06-12T05:34:59.543Z,51.30
2018-06-12T05:35:30.720Z,50.62
2018-06-12T05:36:01.899Z,50.32
2018-06-12T05:36:33.141Z,51.31
2018-06-12T05:37:04.320Z,50.89
2018-06-12T05:37:35.575Z,50.53
2018-06-12T05:38:06.778Z,51.58
2018-06-12T05:38:37.943Z,51.47
2018-06-12T05:39:09.112Z,50.98
2018-06-12T05:39:40.281Z,51.35
2018-06-12T05:40:11.448Z,51.60
2018-06-12T05:40:42.674Z,51.64
2018-06-12T05:41:13.909Z,51.49
2018-06-12T05:41:45.098Z,50.71
2018-06-12T05:42:16.322Z,50.70
2018-06-12T05:42:47.545Z,50.56
2018-06-12T05:43:19.359Z,51.05
2018-06-12T05:43:50.579Z,51.06
2018-06-12T05:44:21.932Z,50.22
2018-06-12T05:44:53.171Z,49.82
2018-06-12T05:45:24.478Z,49.38
2018-06-12T05:45:55.748Z,49.42
2018-06-12T05:46:26.916Z,50.00
2018-06-12T05:46:58.097Z,49.70
2018-06-12T05:47:29.271Z,49.76
2018-06-12T05:48:00.499Z,50.45
2018-06-12T05:48:31.751Z,50.02
2018-06-12T05:49:02.924Z,50.35
2018-06-12T05:49:34.200Z,49.76
2018-06-12T05:50:05.464Z,48.57
2018-06-12T05:50:36.732Z,48.23
2018-06-12T05:51:07.917Z,48.61
2018-06-12T05:51:39.110Z,48.55
2018-06-12T05:52:10.375Z,47.69
2018-06-12T05:52:41.625Z,48.18
2018-06-12T05:53:12.860Z,47.83
2018-06-12T05:53:44.174Z,47.66
2018-06-12T05:54:15.421Z,48.47
2018-06-12T05:54:46.612Z,47.81
2018-06-12T05:55:17.797Z,48.61
2018-06-12T05:55:48.991Z,48.27
2018-06-12T05:56:20.180Z,48.35
2018-06-12T05:56:51.367Z,47.94
2018-06-12T05:57:22.538Z,47.41
2018-06-12T05:57:53.808Z,48.11
2018-06-12T05:58:25.021Z,47.72
2018-06-12T05:58:56.250Z,48.33
2018-06-12T05:59:27.485Z,47.78
2018-06-12T05:59:58.675Z,47.96
2018-06-12T06:00:29.844Z,47.50
2018-06-12T06:01:01.069Z,47.24
2018-06-12T06:01:32.255Z,47.21
2018-06-12T06:02:03.469Z,46.86
2018-06-12T06:02:34.645Z,46.79
2018-06-12T06:03:05.821Z,46.73
2018-06-12T06:03:37.067Z,45.88
2018-06-12T06:04:08.313Z,45.72
2018-06-12T06:04:39.500Z,44.79
2018-06-12T06:05:10.682Z,45.65
2018-06-12T06:05:41.974Z,45.18
2018-06-12T06:06:13.180Z,44.61
2018-06-12T06:06:44.352Z,44.48
2018-06-12T06:07:15.532Z,44.51
2018-06-12T06:07:46.702Z,44.13
2018-06-12T06:08:17.889Z,44.11
2018-06-12T06:08:49.080Z,44.15
2018-06-12T06:09:20.269Z,43.29
2018-06-12T06:09:51.599Z,43.26
2018-06-12T06:10:22.776Z,44.07
2018-06-12T06:10:53.992Z,44.35
2018-06-12T06:11:25.284Z,43.56
2018-06-12T06:11:56.453Z,43.99
2018-06-12T06:12:27.680Z,44.00
2018-06-12T06:12:58.921Z,44.09
2018-06-12T06:13:30.115Z,44.50
2018-06-12T06:14:01.361Z,44.23
2018-06-12T06:14:32.544Z,44.30
2018-06-12T06:15:03.724Z,44.03
2018-06-12T06:15:34.959Z,44.23
2018-06-12T06:16:06.138Z,44.05
2018-06-12T06:16:37.413Z,44.29
2018-06-12T06:17:08.668Z,44.35
2018-06-12T06:17:39.834Z,43.86
2018-06-12T06:18:11.020Z,43.41
2018-06-12T06:18:42.268Z,43.59
2018-06-12T06:19:13.505Z,43.57
2018-06-12T06:19:44.774Z,43.72
2018-06-12T06:20:15.959Z,43.66
2018-06-12T06:20:47.282Z,43.62
2018-06-12T06:21:18.510Z,43.57
2018-06-12T06:21:49.690Z,43.40
2018-06-12T06:22:21.003Z,42.68
2018-06-12T06:22:52.249Z,43.39
2018-06-12T06:23:23.438Z,43.10
2018-06-12T06:23:54.685Z,42.22
2018-06-12T06:24:25.878Z,42.70
2018-06-12T06:24:57.060Z,43.04
2018-06-12T06:25:28.244Z,42.72
2018-06-12T06:25:59.434Z,42.43
2018-06-12T06:26:30.674Z,42.74
2018-06-12T06:27:01.877Z,42.54
2018-06-12T06:27:33.108Z,41.95
2018-06-12T06:28:04.293Z,42.17
2018-06-12T06:28:35.464Z,42.20
2018-06-12T06:29:06.701Z,42.09
2018-06-12T06:29:37.904Z,41.80
2018-06-12T06:30:09.113Z,42.51
2018-06-12T06:30:40.371Z,41.17
2018-06-12T06:31:11.604Z,40.76
2018-06-12T06:31:42.826Z,39.95
2018-06-12T06:32:14.002Z,40.16
2018-06-12T06:32:45.217Z,40.31
2018-06-12T06:33:16.445Z,40.44
2018-06-12T06:33:47.635Z,40.32
2018-06-12T06:34:18.817Z,40.55
2018-06-12T06:34:50.040Z,40.37
2018-06-12T06:35:21.228Z,40.47
2018-06-12T06:35:52.489Z,40.52
2018-06-12T06:36:23.755Z,40.18
2018-06-12T06:36:54.913Z,39.66
2018-06-12T06:37:26.144Z,39.74
2018-06-12T06:37:57.333Z,39.67
2018-06-12T06:38:28.521Z,39.66
2018-06-12T06:38:59.736Z,39.60
2018-06-12T06:39:30.950Z,39.37
2018-06-12T06:40:02.135Z,39.73
2018-06-12T06:40:33.311Z,39.39
2018-06-12T06:41:04.561Z,39.33
2018-06-12T06:41:35.750Z,39.34
2018-06-12T06:42:06.931Z,39.82